Terminal Aerodrome Forecast
Issued by NWS

Home | Current Version | Previous Version | Text Only | Print | Product List | Glossary On
Versions: 1 2 3 4 5 6 7 8 9 10 11 12 13 14 15 16 17 18 19 20 21 22 23 24 25 26 27 28 29 30 31 32
190
FTUS44 KHGX 252340
TAFUTS
TAF
KUTS 252340Z 2600/2624 17007G18KT P6SM SCT040 BKN045
     FM260200 17012KT P6SM BKN015 BKN025
     FM260600 18013KT P6SM OVC007
     FM261500 19014KT P6SM BKN015
     FM261800 24014G21KT P6SM SCT050
     FM262100 32020KT P6SM FEW070=

USA.gov is the U.S. government's official web portal to all federal, state and local government web resources and services.